sensor_id;sensor_type;location;lat;lon;timestamp;pressure;altitude;pressure_sealevel;temperature;humidity
28630;BME280;15817;42.130;24.762;2022-08-21T00:00:33;99158.03;;;24.13;99.72
28630;BME280;15817;42.130;24.762;2022-08-21T00:03:02;99175.00;;;24.04;98.53
28630;BME280;15817;42.130;24.762;2022-08-21T00:05:31;99184.69;;;23.96;99.71
28630;BME280;15817;42.130;24.762;2022-08-21T00:07:57;99192.63;;;23.99;100.00
28630;BME280;15817;42.130;24.762;2022-08-21T00:10:24;99191.41;;;24.03;100.00
28630;BME280;15817;42.130;24.762;2022-08-21T00:12:50;99173.25;;;24.03;100.00
28630;BME280;15817;42.130;24.762;2022-08-21T00:15:19;99172.38;;;24.03;100.00
28630;BME280;15817;42.130;24.762;2022-08-21T00:17:46;99176.09;;;24.02;100.00
28630;BME280;15817;42.130;24.762;2022-08-21T00:20:14;99155.22;;;24.02;100.00
28630;BME280;15817;42.130;24.762;2022-08-21T00:22:41;99160.75;;;24.01;100.00
28630;BME280;15817;42.130;24.762;2022-08-21T00:25:08;99156.44;;;23.98;100.00
28630;BME280;15817;42.130;24.762;2022-08-21T00:27:34;99156.00;;;23.92;100.00
28630;BME280;15817;42.130;24.762;2022-08-21T00:30:04;99153.94;;;23.95;100.00
28630;BME280;15817;42.130;24.762;2022-08-21T00:32:30;99159.25;;;23.97;100.00
28630;BME280;15817;42.130;24.762;2022-08-21T00:34:55;99155.03;;;23.93;99.92
28630;BME280;15817;42.130;24.762;2022-08-21T00:37:22;99167.84;;;23.91;99.25
28630;BME280;15817;42.130;24.762;2022-08-21T00:39:48;99163.16;;;23.80;99.17
28630;BME280;15817;42.130;24.762;2022-08-21T00:42:15;99141.13;;;23.72;100.00
28630;BME280;15817;42.130;24.762;2022-08-21T00:44:43;99148.63;;;23.81;100.00
28630;BME280;15817;42.130;24.762;2022-08-21T00:47:09;99124.53;;;23.76;100.00
28630;BME280;15817;42.130;24.762;2022-08-21T00:49:36;99128.84;;;23.79;100.00
28630;BME280;15817;42.130;24.762;2022-08-21T00:52:07;99134.16;;;23.80;100.00
28630;BME280;15817;42.130;24.762;2022-08-21T00:54:34;99149.06;;;23.75;100.00
28630;BME280;15817;42.130;24.762;2022-08-21T00:57:05;99158.31;;;23.72;100.00
28630;BME280;15817;42.130;24.762;2022-08-21T00:59:35;99149.28;;;23.72;100.00
28630;BME280;15817;42.130;24.762;2022-08-21T01:02:05;99153.72;;;23.60;100.00
28630;BME280;15817;42.130;24.762;2022-08-21T01:04:32;99145.50;;;23.62;100.00
28630;BME280;15817;42.130;24.762;2022-08-21T01:06:59;99147.34;;;23.61;100.00
28630;BME280;15817;42.130;24.762;2022-08-21T01:09:25;99137.88;;;23.67;100.00
28630;BME280;15817;42.130;24.762;2022-08-21T01:11:51;99140.25;;;23.71;100.00
28630;BME280;15817;42.130;24.762;2022-08-21T01:14:17;99124.53;;;23.64;100.00
28630;BME280;15817;42.130;24.762;2022-08-21T01:16:48;99126.03;;;23.68;100.00
28630;BME280;15817;42.130;24.762;2022-08-21T01:19:16;99107.03;;;23.68;100.00
28630;BME280;15817;42.130;24.762;2022-08-21T01:21:43;99113.44;;;23.67;100.00
28630;BME280;15817;42.130;24.762;2022-08-21T01:24:11;99109.53;;;23.58;100.00
28630;BME280;15817;42.130;24.762;2022-08-21T01:26:37;99109.13;;;23.52;100.00
28630;BME280;15817;42.130;24.762;2022-08-21T01:31:51;99085.19;;;23.57;100.00
28630;BME280;15817;42.130;24.762;2022-08-21T01:34:17;99086.63;;;23.62;100.00
28630;BME280;15817;42.130;24.762;2022-08-21T01:36:45;99082.50;;;23.57;100.00
28630;BME280;15817;42.130;24.762;2022-08-21T01:39:12;99086.06;;;23.57;100.00
28630;BME280;15817;42.130;24.762;2022-08-21T01:41:38;99090.00;;;23.53;100.00
28630;BME280;15817;42.130;24.762;2022-08-21T01:44:04;99089.31;;;23.50;100.00
28630;BME280;15817;42.130;24.762;2022-08-21T01:46:30;99096.59;;;23.49;100.00
28630;BME280;15817;42.130;24.762;2022-08-21T01:48:56;99093.09;;;23.47;100.00
28630;BME280;15817;42.130;24.762;2022-08-21T01:51:22;99103.00;;;23.48;100.00
28630;BME280;15817;42.130;24.762;2022-08-21T01:53:48;99112.00;;;23.48;100.00
28630;BME280;15817;42.130;24.762;2022-08-21T01:56:15;99131.97;;;23.47;100.00
28630;BME280;15817;42.130;24.762;2022-08-21T01:58:43;99150.53;;;23.28;100.00
28630;BME280;15817;42.130;24.762;2022-08-21T02:01:09;99172.78;;;23.33;100.00
28630;BME280;15817;42.130;24.762;2022-08-21T02:03:36;99176.13;;;23.24;100.00
28630;BME280;15817;42.130;24.762;2022-08-21T02:06:04;99175.16;;;23.25;100.00
28630;BME280;15817;42.130;24.762;2022-08-21T02:08:30;99170.59;;;23.26;100.00
28630;BME280;15817;42.130;24.762;2022-08-21T02:10:56;99168.31;;;23.32;100.00
28630;BME280;15817;42.130;24.762;2022-08-21T02:13:22;99176.72;;;23.42;100.00
28630;BME280;15817;42.130;24.762;2022-08-21T02:15:48;99165.63;;;23.45;100.00
28630;BME280;15817;42.130;24.762;2022-08-21T02:18:14;99168.25;;;23.46;100.00
28630;BME280;15817;42.130;24.762;2022-08-21T02:20:43;99169.22;;;23.45;100.00
28630;BME280;15817;42.130;24.762;2022-08-21T02:23:11;99164.13;;;23.41;100.00
28630;BME280;15817;42.130;24.762;2022-08-21T02:25:37;99179.19;;;23.45;100.00
28630;BME280;15817;42.130;24.762;2022-08-21T02:28:06;99180.28;;;23.42;100.00
28630;BME280;15817;42.130;24.762;2022-08-21T02:30:35;99188.19;;;23.33;100.00
28630;BME280;15817;42.130;24.762;2022-08-21T02:33:06;99192.22;;;23.27;100.00
28630;BME280;15817;42.130;24.762;2022-08-21T02:35:33;99196.66;;;23.28;100.00
28630;BME280;15817;42.130;24.762;2022-08-21T02:38:02;99198.19;;;23.32;100.00
28630;BME280;15817;42.130;24.762;2022-08-21T02:40:32;99196.44;;;23.31;100.00
28630;BME280;15817;42.130;24.762;2022-08-21T02:42:59;99196.56;;;23.30;100.00
28630;BME280;15817;42.130;24.762;2022-08-21T02:45:26;99199.16;;;23.31;100.00
28630;BME280;15817;42.130;24.762;2022-08-21T02:47:59;99207.75;;;23.38;100.00
28630;BME280;15817;42.130;24.762;2022-08-21T02:50:29;99199.91;;;23.33;100.00
28630;BME280;15817;42.130;24.762;2022-08-21T02:52:56;99190.91;;;23.33;100.00
28630;BME280;15817;42.130;24.762;2022-08-21T02:55:24;99197.31;;;23.32;100.00
28630;BME280;15817;42.130;24.762;2022-08-21T02:57:51;99191.25;;;23.28;100.00
28630;BME280;15817;42.130;24.762;2022-08-21T03:00:17;99190.56;;;23.25;100.00
28630;BME280;15817;42.130;24.762;2022-08-21T03:02:43;99188.84;;;23.24;100.00
28630;BME280;15817;42.130;24.762;2022-08-21T03:05:13;99182.34;;;23.26;100.00
28630;BME280;15817;42.130;24.762;2022-08-21T03:07:42;99192.13;;;23.29;100.00
28630;BME280;15817;42.130;24.762;2022-08-21T03:10:08;99193.72;;;23.31;100.00
28630;BME280;15817;42.130;24.762;2022-08-21T03:12:34;99203.16;;;23.26;100.00
28630;BME280;15817;42.130;24.762;2022-08-21T03:15:05;99203.03;;;23.15;100.00
28630;BME280;15817;42.130;24.762;2022-08-21T03:17:32;99211.84;;;23.18;100.00
28630;BME280;15817;42.130;24.762;2022-08-21T03:19:59;99214.22;;;23.23;100.00
28630;BME280;15817;42.130;24.762;2022-08-21T03:22:26;99201.97;;;23.17;100.00
28630;BME280;15817;42.130;24.762;2022-08-21T03:24:52;99203.72;;;23.18;100.00
28630;BME280;15817;42.130;24.762;2022-08-21T03:27:19;99215.53;;;23.17;100.00
28630;BME280;15817;42.130;24.762;2022-08-21T03:29:44;99208.56;;;23.13;100.00
28630;BME280;15817;42.130;24.762;2022-08-21T03:32:10;99206.38;;;23.05;100.00
28630;BME280;15817;42.130;24.762;2022-08-21T03:34:37;99204.63;;;23.04;100.00
28630;BME280;15817;42.130;24.762;2022-08-21T03:37:04;99199.22;;;23.04;100.00
28630;BME280;15817;42.130;24.762;2022-08-21T03:39:31;99201.91;;;23.04;100.00
28630;BME280;15817;42.130;24.762;2022-08-21T03:42:00;99205.50;;;23.05;100.00
28630;BME280;15817;42.130;24.762;2022-08-21T03:44:27;99209.59;;;22.98;100.00
28630;BME280;15817;42.130;24.762;2022-08-21T03:46:55;99213.94;;;23.00;100.00
28630;BME280;15817;42.130;24.762;2022-08-21T03:49:26;99203.81;;;22.90;100.00
28630;BME280;15817;42.130;24.762;2022-08-21T03:51:54;99199.25;;;22.90;100.00
28630;BME280;15817;42.130;24.762;2022-08-21T03:54:20;99210.97;;;22.91;100.00
28630;BME280;15817;42.130;24.762;2022-08-21T03:56:46;99220.38;;;22.85;100.00
28630;BME280;15817;42.130;24.762;2022-08-21T03:59:12;99212.06;;;22.74;100.00
28630;BME280;15817;42.130;24.762;2022-08-21T04:01:39;99236.78;;;22.84;100.00
28630;BME280;15817;42.130;24.762;2022-08-21T04:04:05;99208.22;;;22.78;100.00
28630;BME280;15817;42.130;24.762;2022-08-21T04:06:32;99226.81;;;22.84;100.00
28630;BME280;15817;42.130;24.762;2022-08-21T04:08:58;99223.31;;;22.82;100.00
28630;BME280;15817;42.130;24.762;2022-08-21T04:11:24;99222.03;;;22.88;100.00
28630;BME280;15817;42.130;24.762;2022-08-21T04:13:49;99216.34;;;22.78;100.00
28630;BME280;15817;42.130;24.762;2022-08-21T04:16:15;99211.03;;;22.62;100.00
28630;BME280;15817;42.130;24.762;2022-08-21T04:18:41;99222.72;;;22.63;100.00
28630;BME280;15817;42.130;24.762;2022-08-21T04:21:11;99225.34;;;22.64;100.00
28630;BME280;15817;42.130;24.762;2022-08-21T04:23:38;99235.53;;;22.61;100.00
28630;BME280;15817;42.130;24.762;2022-08-21T04:26:04;99228.16;;;22.63;100.00
28630;BME280;15817;42.130;24.762;2022-08-21T04:28:30;99230.78;;;22.64;100.00
28630;BME280;15817;42.130;24.762;2022-08-21T04:30:56;99222.00;;;22.61;100.00
28630;BME280;15817;42.130;24.762;2022-08-21T04:33:22;99218.97;;;22.65;100.00
28630;BME280;15817;42.130;24.762;2022-08-21T04:35:49;99219.16;;;22.62;100.00
28630;BME280;15817;42.130;24.762;2022-08-21T04:38:16;99205.59;;;22.62;100.00
28630;BME280;15817;42.130;24.762;2022-08-21T04:40:42;99217.22;;;22.64;100.00
28630;BME280;15817;42.130;24.762;2022-08-21T04:43:11;99209.84;;;22.66;100.00
28630;BME280;15817;42.130;24.762;2022-08-21T04:45:40;99208.31;;;22.62;100.00
28630;BME280;15817;42.130;24.762;2022-08-21T04:48:08;99208.88;;;22.67;100.00
28630;BME280;15817;42.130;24.762;2022-08-21T04:53:26;99196.31;;;22.66;100.00
28630;BME280;15817;42.130;24.762;2022-08-21T04:55:54;99190.69;;;22.69;100.00
28630;BME280;15817;42.130;24.762;2022-08-21T04:58:24;99188.06;;;22.68;100.00
28630;BME280;15817;42.130;24.762;2022-08-21T05:00:56;99187.22;;;22.67;100.00
28630;BME280;15817;42.130;24.762;2022-08-21T05:03:23;99181.19;;;22.62;100.00
28630;BME280;15817;42.130;24.762;2022-08-21T05:05:49;99195.63;;;22.63;100.00
28630;BME280;15817;42.130;24.762;2022-08-21T05:08:19;99206.13;;;22.55;100.00
28630;BME280;15817;42.130;24.762;2022-08-21T05:10:51;99195.78;;;22.47;100.00
28630;BME280;15817;42.130;24.762;2022-08-21T05:13:17;99186.28;;;22.40;100.00
28630;BME280;15817;42.130;24.762;2022-08-21T05:15:46;99190.75;;;22.41;100.00
28630;BME280;15817;42.130;24.762;2022-08-21T05:18:12;99186.53;;;22.37;100.00
28630;BME280;15817;42.130;24.762;2022-08-21T05:20:38;99185.03;;;22.46;100.00
28630;BME280;15817;42.130;24.762;2022-08-21T05:23:13;99168.09;;;22.42;100.00
28630;BME280;15817;42.130;24.762;2022-08-21T05:25:40;99174.97;;;22.48;100.00
28630;BME280;15817;42.130;24.762;2022-08-21T05:28:07;99165.09;;;22.47;100.00
28630;BME280;15817;42.130;24.762;2022-08-21T05:30:36;99168.34;;;22.52;100.00
28630;BME280;15817;42.130;24.762;2022-08-21T05:33:05;99170.97;;;22.53;100.00
28630;BME280;15817;42.130;24.762;2022-08-21T05:35:31;99175.75;;;22.50;100.00
28630;BME280;15817;42.130;24.762;2022-08-21T05:37:58;99181.16;;;22.50;100.00
28630;BME280;15817;42.130;24.762;2022-08-21T05:40:25;99191.88;;;22.51;100.00
28630;BME280;15817;42.130;24.762;2022-08-21T05:42:55;99180.16;;;22.51;100.00
28630;BME280;15817;42.130;24.762;2022-08-21T05:45:27;99171.16;;;22.50;100.00
28630;BME280;15817;42.130;24.762;2022-08-21T05:47:53;99182.13;;;22.49;100.00
28630;BME280;15817;42.130;24.762;2022-08-21T05:50:22;99193.16;;;22.46;100.00
28630;BME280;15817;42.130;24.762;2022-08-21T05:52:48;99188.53;;;22.48;100.00
28630;BME280;15817;42.130;24.762;2022-08-21T05:55:14;99194.72;;;22.50;100.00
28630;BME280;15817;42.130;24.762;2022-08-21T05:57:40;99189.16;;;22.51;100.00
28630;BME280;15817;42.130;24.762;2022-08-21T06:00:09;99193.84;;;22.49;100.00
28630;BME280;15817;42.130;24.762;2022-08-21T06:02:39;99198.50;;;22.47;100.00
28630;BME280;15817;42.130;24.762;2022-08-21T06:05:05;99202.38;;;22.43;100.00
28630;BME280;15817;42.130;24.762;2022-08-21T06:07:31;99210.22;;;22.48;100.00
28630;BME280;15817;42.130;24.762;2022-08-21T06:09:59;99198.88;;;22.41;100.00
28630;BME280;15817;42.130;24.762;2022-08-21T06:12:36;99201.91;;;22.36;100.00
28630;BME280;15817;42.130;24.762;2022-08-21T06:15:03;99198.09;;;22.39;100.00
28630;BME280;15817;42.130;24.762;2022-08-21T06:17:32;99219.84;;;22.52;100.00
28630;BME280;15817;42.130;24.762;2022-08-21T06:19:58;99206.13;;;22.55;100.00
28630;BME280;15817;42.130;24.762;2022-08-21T06:22:23;99203.84;;;22.75;100.00
28630;BME280;15817;42.130;24.762;2022-08-21T06:24:49;99206.63;;;22.88;100.00
28630;BME280;15817;42.130;24.762;2022-08-21T06:27:15;99202.41;;;22.84;100.00
28630;BME280;15817;42.130;24.762;2022-08-21T06:29:43;99210.91;;;22.78;100.00
28630;BME280;15817;42.130;24.762;2022-08-21T06:32:12;99218.56;;;22.71;100.00
28630;BME280;15817;42.130;24.762;2022-08-21T06:34:39;99199.44;;;22.60;100.00
28630;BME280;15817;42.130;24.762;2022-08-21T06:37:06;99208.22;;;22.64;100.00
28630;BME280;15817;42.130;24.762;2022-08-21T06:39:33;99210.72;;;22.67;100.00
28630;BME280;15817;42.130;24.762;2022-08-21T06:42:00;99198.81;;;22.69;100.00
28630;BME280;15817;42.130;24.762;2022-08-21T06:44:28;99197.47;;;22.77;100.00
28630;BME280;15817;42.130;24.762;2022-08-21T06:46:54;99193.31;;;22.71;100.00
28630;BME280;15817;42.130;24.762;2022-08-21T06:49:20;99196.41;;;22.79;100.00
28630;BME280;15817;42.130;24.762;2022-08-21T06:51:46;99179.84;;;22.69;100.00
28630;BME280;15817;42.130;24.762;2022-08-21T06:54:11;99183.09;;;22.74;100.00
28630;BME280;15817;42.130;24.762;2022-08-21T06:56:37;99180.38;;;22.74;100.00
28630;BME280;15817;42.130;24.762;2022-08-21T06:59:04;99171.81;;;22.68;100.00
28630;BME280;15817;42.130;24.762;2022-08-21T07:01:31;99182.22;;;22.74;100.00
28630;BME280;15817;42.130;24.762;2022-08-21T07:03:56;99182.16;;;22.75;100.00
28630;BME280;15817;42.130;24.762;2022-08-21T07:06:22;99173.13;;;22.75;100.00
28630;BME280;15817;42.130;24.762;2022-08-21T07:08:48;99173.72;;;22.80;100.00
28630;BME280;15817;42.130;24.762;2022-08-21T07:11:19;99168.84;;;22.85;100.00
28630;BME280;15817;42.130;24.762;2022-08-21T07:13:48;99160.84;;;22.84;100.00
28630;BME280;15817;42.130;24.762;2022-08-21T07:16:16;99176.91;;;22.87;100.00
28630;BME280;15817;42.130;24.762;2022-08-21T07:18:42;99172.13;;;22.90;100.00
28630;BME280;15817;42.130;24.762;2022-08-21T07:21:17;99171.41;;;23.01;100.00
28630;BME280;15817;42.130;24.762;2022-08-21T07:23:46;99177.50;;;23.04;100.00
28630;BME280;15817;42.130;24.762;2022-08-21T07:26:19;99175.66;;;23.05;100.00
28630;BME280;15817;42.130;24.762;2022-08-21T07:28:47;99183.47;;;23.09;100.00
28630;BME280;15817;42.130;24.762;2022-08-21T07:31:24;99166.09;;;22.99;100.00
28630;BME280;15817;42.130;24.762;2022-08-21T07:34:04;99172.84;;;23.06;100.00
28630;BME280;15817;42.130;24.762;2022-08-21T07:36:42;99170.56;;;23.13;100.00
28630;BME280;15817;42.130;24.762;2022-08-21T07:39:43;99160.78;;;23.10;100.00
28630;BME280;15817;42.130;24.762;2022-08-21T07:42:15;99150.81;;;23.11;100.00
28630;BME280;15817;42.130;24.762;2022-08-21T07:44:41;99148.66;;;23.16;100.00
28630;BME280;15817;42.130;24.762;2022-08-21T07:47:07;99146.94;;;23.15;100.00
28630;BME280;15817;42.130;24.762;2022-08-21T07:49:32;99161.81;;;23.22;100.00
28630;BME280;15817;42.130;24.762;2022-08-21T07:52:01;99160.06;;;23.21;100.00
28630;BME280;15817;42.130;24.762;2022-08-21T07:54:30;99156.56;;;23.19;100.00
28630;BME280;15817;42.130;24.762;2022-08-21T07:56:56;99158.66;;;23.16;100.00
28630;BME280;15817;42.130;24.762;2022-08-21T07:59:22;99155.38;;;23.10;100.00
28630;BME280;15817;42.130;24.762;2022-08-21T08:01:48;99161.66;;;23.11;100.00
28630;BME280;15817;42.130;24.762;2022-08-21T08:07:06;99174.25;;;23.12;100.00
28630;BME280;15817;42.130;24.762;2022-08-21T08:09:32;99158.94;;;23.11;100.00
28630;BME280;15817;42.130;24.762;2022-08-21T08:12:07;99167.09;;;23.11;100.00
28630;BME280;15817;42.130;24.762;2022-08-21T08:14:43;99155.81;;;23.04;100.00
28630;BME280;15817;42.130;24.762;2022-08-21T08:17:18;99155.72;;;23.06;100.00
28630;BME280;15817;42.130;24.762;2022-08-21T08:19:50;99152.91;;;23.07;100.00
28630;BME280;15817;42.130;24.762;2022-08-21T08:22:21;99150.19;;;23.07;100.00
28630;BME280;15817;42.130;24.762;2022-08-21T08:24:47;99143.66;;;23.10;100.00
28630;BME280;15817;42.130;24.762;2022-08-21T08:27:14;99156.47;;;23.21;100.00
28630;BME280;15817;42.130;24.762;2022-08-21T08:29:42;99151.28;;;23.18;100.00
28630;BME280;15817;42.130;24.762;2022-08-21T08:32:11;99157.81;;;23.28;100.00
28630;BME280;15817;42.130;24.762;2022-08-21T08:34:37;99146.28;;;23.24;100.00
28630;BME280;15817;42.130;24.762;2022-08-21T08:37:08;99137.59;;;23.19;100.00
28630;BME280;15817;42.130;24.762;2022-08-21T08:39:34;99140.19;;;23.21;100.00
28630;BME280;15817;42.130;24.762;2022-08-21T08:42:16;99136.59;;;23.20;100.00
28630;BME280;15817;42.130;24.762;2022-08-21T08:44:45;99140.97;;;23.23;100.00
28630;BME280;15817;42.130;24.762;2022-08-21T08:47:16;99132.63;;;23.26;100.00
28630;BME280;15817;42.130;24.762;2022-08-21T08:50:05;99129.91;;;23.38;100.00
28630;BME280;15817;42.130;24.762;2022-08-21T08:52:45;99137.63;;;23.44;100.00
28630;BME280;15817;42.130;24.762;2022-08-21T08:55:23;99124.72;;;23.48;100.00
28630;BME280;15817;42.130;24.762;2022-08-21T08:57:54;99135.91;;;23.56;100.00
28630;BME280;15817;42.130;24.762;2022-08-21T09:00:22;99130.38;;;23.58;100.00
28630;BME280;15817;42.130;24.762;2022-08-21T09:02:56;99127.34;;;23.62;100.00
28630;BME280;15817;42.130;24.762;2022-08-21T09:13:41;99130.78;;;23.77;100.00
28630;BME280;15817;42.130;24.762;2022-08-21T09:24:53;99114.13;;;24.07;100.00
28630;BME280;15817;42.130;24.762;2022-08-21T09:27:22;99109.22;;;24.12;100.00
28630;BME280;15817;42.130;24.762;2022-08-21T09:29:52;99104.91;;;24.22;100.00
28630;BME280;15817;42.130;24.762;2022-08-21T09:35:16;99082.09;;;24.36;100.00
28630;BME280;15817;42.130;24.762;2022-08-21T09:43:05;99082.53;;;24.42;100.00
28630;BME280;15817;42.130;24.762;2022-08-21T09:45:42;99082.16;;;24.23;100.00
28630;BME280;15817;42.130;24.762;2022-08-21T09:48:22;99076.06;;;24.19;100.00
28630;BME280;15817;42.130;24.762;2022-08-21T09:50:49;99086.81;;;24.21;100.00
28630;BME280;15817;42.130;24.762;2022-08-21T09:53:27;99074.66;;;24.14;100.00
28630;BME280;15817;42.130;24.762;2022-08-21T09:55:57;99092.38;;;24.19;100.00
28630;BME280;15817;42.130;24.762;2022-08-21T09:58:47;99083.06;;;24.11;100.00
28630;BME280;15817;42.130;24.762;2022-08-21T10:01:25;99101.06;;;24.12;100.00
28630;BME280;15817;42.130;24.762;2022-08-21T10:04:04;99105.88;;;24.08;100.00
28630;BME280;15817;42.130;24.762;2022-08-21T10:06:30;99094.75;;;24.11;100.00
28630;BME280;15817;42.130;24.762;2022-08-21T10:09:16;99098.13;;;24.15;100.00
28630;BME280;15817;42.130;24.762;2022-08-21T10:21:46;99100.19;;;24.11;100.00
28630;BME280;15817;42.130;24.762;2022-08-21T10:24:25;99097.16;;;24.16;100.00
28630;BME280;15817;42.130;24.762;2022-08-21T10:44:49;99104.56;;;24.01;100.00
28630;BME280;15817;42.130;24.762;2022-08-21T11:06:19;99100.03;;;23.89;100.00
28630;BME280;15817;42.130;24.762;2022-08-21T11:09:18;99114.06;;;23.96;100.00
28630;BME280;15817;42.130;24.762;2022-08-21T11:19:48;99112.09;;;23.98;100.00
28630;BME280;15817;42.130;24.762;2022-08-21T11:22:26;99097.09;;;23.92;100.00
28630;BME280;15817;42.130;24.762;2022-08-21T11:28:44;99085.91;;;23.97;100.00
28630;BME280;15817;42.130;24.762;2022-08-21T11:31:36;99098.81;;;24.06;100.00
28630;BME280;15817;42.130;24.762;2022-08-21T11:46:27;99092.47;;;24.18;100.00
28630;BME280;15817;42.130;24.762;2022-08-21T11:51:36;99077.63;;;24.11;100.00
28630;BME280;15817;42.130;24.762;2022-08-21T11:57:45;99077.47;;;24.12;100.00
28630;BME280;15817;42.130;24.762;2022-08-21T12:00:27;99066.97;;;24.08;100.00
28630;BME280;15817;42.130;24.762;2022-08-21T12:03:22;99074.03;;;24.10;100.00
28630;BME280;15817;42.130;24.762;2022-08-21T12:12:42;99053.59;;;24.05;100.00
28630;BME280;15817;42.130;24.762;2022-08-21T12:19:30;99048.50;;;24.00;100.00
28630;BME280;15817;42.130;24.762;2022-08-21T12:27:47;99044.94;;;24.00;100.00
28630;BME280;15817;42.130;24.762;2022-08-21T12:41:42;99026.59;;;23.91;100.00
28630;BME280;15817;42.130;24.762;2022-08-21T12:55:52;99002.91;;;23.93;100.00
28630;BME280;15817;42.130;24.762;2022-08-21T12:58:35;99005.34;;;24.08;100.00
28630;BME280;15817;42.130;24.762;2022-08-21T13:01:45;99009.69;;;24.11;100.00
28630;BME280;15817;42.130;24.762;2022-08-21T13:04:46;99000.94;;;24.18;100.00
28630;BME280;15817;42.130;24.762;2022-08-21T13:07:31;99006.47;;;24.30;100.00
28630;BME280;15817;42.130;24.762;2022-08-21T13:10:22;99017.63;;;24.38;100.00
28630;BME280;15817;42.130;24.762;2022-08-21T13:13:01;99008.22;;;24.31;100.00
28630;BME280;15817;42.130;24.762;2022-08-21T13:15:35;99003.53;;;24.33;100.00
28630;BME280;15817;42.130;24.762;2022-08-21T13:18:03;99008.72;;;24.36;100.00
28630;BME280;15817;42.130;24.762;2022-08-21T13:20:38;99013.81;;;24.40;100.00
28630;BME280;15817;42.130;24.762;2022-08-21T13:23:30;99009.34;;;24.39;100.00
28630;BME280;15817;42.130;24.762;2022-08-21T13:25:59;99000.44;;;24.37;100.00
28630;BME280;15817;42.130;24.762;2022-08-21T13:28:40;99006.00;;;24.36;100.00
28630;BME280;15817;42.130;24.762;2022-08-21T13:31:24;98995.38;;;24.33;100.00
28630;BME280;15817;42.130;24.762;2022-08-21T13:33:55;99010.00;;;24.43;100.00
28630;BME280;15817;42.130;24.762;2022-08-21T13:36:26;99010.38;;;24.49;100.00
28630;BME280;15817;42.130;24.762;2022-08-21T13:38:54;98990.53;;;24.60;100.00
28630;BME280;15817;42.130;24.762;2022-08-21T13:41:25;98998.63;;;24.84;99.13
28630;BME280;15817;42.130;24.762;2022-08-21T13:44:02;98994.63;;;25.01;98.89
28630;BME280;15817;42.130;24.762;2022-08-21T13:46:31;99012.59;;;25.14;99.13
28630;BME280;15817;42.130;24.762;2022-08-21T13:49:03;98993.66;;;25.13;100.00
28630;BME280;15817;42.130;24.762;2022-08-21T13:51:30;99000.09;;;25.12;100.00
28630;BME280;15817;42.130;24.762;2022-08-21T13:53:58;98999.69;;;25.05;99.51
28630;BME280;15817;42.130;24.762;2022-08-21T13:56:32;98995.50;;;25.01;98.90
28630;BME280;15817;42.130;24.762;2022-08-21T13:59:00;98996.84;;;25.07;97.64
28630;BME280;15817;42.130;24.762;2022-08-21T14:01:36;98984.72;;;25.00;97.79
28630;BME280;15817;42.130;24.762;2022-08-21T14:06:34;99007.25;;;25.02;97.49
28630;BME280;15817;42.130;24.762;2022-08-21T14:09:13;98992.38;;;24.95;97.09
28630;BME280;15817;42.130;24.762;2022-08-21T14:11:45;98995.38;;;25.03;97.65
28630;BME280;15817;42.130;24.762;2022-08-21T14:14:27;99000.81;;;25.03;98.48
28630;BME280;15817;42.130;24.762;2022-08-21T14:16:57;98984.50;;;25.03;98.86
28630;BME280;15817;42.130;24.762;2022-08-21T14:19:40;98973.97;;;24.98;98.73
28630;BME280;15817;42.130;24.762;2022-08-21T14:22:30;98988.69;;;25.07;97.53
28630;BME280;15817;42.130;24.762;2022-08-21T14:27:38;98965.06;;;25.07;96.00
28630;BME280;15817;42.130;24.762;2022-08-21T14:30:35;98959.84;;;25.04;95.06
28630;BME280;15817;42.130;24.762;2022-08-21T14:33:13;98969.91;;;25.15;92.16
28630;BME280;15817;42.130;24.762;2022-08-21T14:35:47;98953.81;;;25.12;93.15
28630;BME280;15817;42.130;24.762;2022-08-21T14:38:19;98959.63;;;25.18;90.53
28630;BME280;15817;42.130;24.762;2022-08-21T14:40:55;98955.03;;;25.19;89.67
28630;BME280;15817;42.130;24.762;2022-08-21T14:43:30;98947.50;;;25.22;92.10
28630;BME280;15817;42.130;24.762;2022-08-21T14:46:00;98949.38;;;25.22;90.94
28630;BME280;15817;42.130;24.762;2022-08-21T14:48:26;98953.31;;;25.18;89.53
28630;BME280;15817;42.130;24.762;2022-08-21T14:50:55;98948.97;;;25.15;89.67
28630;BME280;15817;42.130;24.762;2022-08-21T14:53:26;98949.47;;;25.20;89.92
28630;BME280;15817;42.130;24.762;2022-08-21T14:55:52;98939.09;;;25.14;90.08
28630;BME280;15817;42.130;24.762;2022-08-21T14:58:39;98948.13;;;25.15;89.22
28630;BME280;15817;42.130;24.762;2022-08-21T15:01:08;98943.06;;;25.10;89.11
28630;BME280;15817;42.130;24.762;2022-08-21T15:03:38;98937.59;;;25.10;89.41
28630;BME280;15817;42.130;24.762;2022-08-21T15:06:11;98940.81;;;25.04;90.55
28630;BME280;15817;42.130;24.762;2022-08-21T15:09:12;98935.75;;;25.00;93.35
28630;BME280;15817;42.130;24.762;2022-08-21T15:11:48;98935.25;;;24.95;93.84
28630;BME280;15817;42.130;24.762;2022-08-21T15:14:25;98943.28;;;24.96;94.79
28630;BME280;15817;42.130;24.762;2022-08-21T15:16:54;98946.97;;;24.95;93.59
28630;BME280;15817;42.130;24.762;2022-08-21T15:19:20;98930.78;;;24.94;92.90
28630;BME280;15817;42.130;24.762;2022-08-21T15:21:47;98944.28;;;24.95;92.58
28630;BME280;15817;42.130;24.762;2022-08-21T15:27:24;98941.16;;;24.88;91.99
28630;BME280;15817;42.130;24.762;2022-08-21T15:29:59;98939.19;;;24.90;92.15
28630;BME280;15817;42.130;24.762;2022-08-21T15:32:27;98930.38;;;24.87;91.58
28630;BME280;15817;42.130;24.762;2022-08-21T15:34:58;98925.81;;;24.87;91.19